Time;durP1;ratioP1;P1;durP2;ratioP2;P2;SDS_P1;SDS_P2;PMS_P1;PMS_P2;Temp;Humidity;BMP_temperature;BMP_pressure;BME280_temperature;BME280_humidity;BME280_pressure;Samples;Min_cycle;Max_cycle;Signal;HPM_P1;HPM_P2
2024/03/30 00:01:01;;;;;;;2.00;1.90;;;9.10;99.90;;;;;;489425;243;27490;-73
2024/03/30 00:03:02;;;;;;;7.03;1.70;;;9.20;99.90;;;;;;489395;242;27991;-73
2024/03/30 00:05:03;;;;;;;2.40;2.10;;;9.20;99.90;;;;;;489447;242;28104;-74
2024/03/30 00:07:04;;;;;;;2.10;1.90;;;9.30;99.90;;;;;;489475;242;27802;-73
2024/03/30 00:09:06;;;;;;;1.90;1.80;;;9.40;99.90;;;;;;489492;242;27542;-74
2024/03/30 00:11:07;;;;;;;2.50;1.63;;;9.40;99.90;;;;;;489450;242;27968;-73
2024/03/30 00:13:08;;;;;;;2.23;2.07;;;9.40;99.90;;;;;;489444;242;28693;-73
2024/03/30 00:15:09;;;;;;;2.50;2.30;;;9.50;99.90;;;;;;491469;241;28335;-73
2024/03/30 00:17:11;;;;;;;1.97;1.83;;;9.60;99.90;;;;;;493995;241;28456;-73
2024/03/30 00:19:13;;;;;;;1.70;1.60;;;9.60;99.90;;;;;;494024;241;28326;-74
2024/03/30 00:21:14;;;;;;;2.13;1.70;;;9.50;99.90;;;;;;493998;241;28235;-73
2024/03/30 00:23:14;;;;;;;1.77;1.67;;;9.50;99.90;;;;;;494001;241;27892;-74
2024/03/30 00:25:16;;;;;;;4.00;2.30;;;9.60;99.90;;;;;;494040;241;27999;-75
2024/03/30 00:27:17;;;;;;;4.10;1.90;;;9.60;99.90;;;;;;494028;241;27696;-74
2024/03/30 00:29:18;;;;;;;1.70;1.60;;;9.70;99.90;;;;;;493975;241;27706;-74
2024/03/30 00:31:23;;;;;;;1.67;1.57;;;9.70;99.90;;;;;;493985;241;27829;-73
2024/03/30 00:33:21;;;;;;;1.83;1.73;;;9.70;99.90;;;;;;493720;241;27817;-73
2024/03/30 00:35:22;;;;;;;2.50;1.57;;;9.70;99.90;;;;;;493997;241;28370;-73
2024/03/30 00:37:23;;;;;;;4.60;2.00;;;9.70;99.90;;;;;;494009;241;27938;-73
2024/03/30 00:39:24;;;;;;;2.13;1.93;;;9.70;99.90;;;;;;493966;237;28163;-73
2024/03/30 00:41:26;;;;;;;2.00;1.63;;;9.70;99.90;;;;;;493972;241;27805;-73
2024/03/30 00:43:27;;;;;;;2.03;1.83;;;9.70;99.90;;;;;;493975;241;27996;-73
2024/03/30 00:45:28;;;;;;;1.90;1.80;;;9.60;99.90;;;;;;493920;241;27981;-74
2024/03/30 00:47:29;;;;;;;4.60;2.47;;;9.60;99.90;;;;;;493535;241;27736;-74
2024/03/30 00:49:31;;;;;;;2.50;1.80;;;9.50;99.90;;;;;;493533;241;27953;-73
2024/03/30 00:51:32;;;;;;;2.27;1.90;;;9.50;99.90;;;;;;493651;241;27658;-73
2024/03/30 00:53:33;;;;;;;2.87;1.60;;;9.40;99.90;;;;;;493683;241;28466;-73
2024/03/30 00:55:34;;;;;;;3.20;1.70;;;9.40;99.90;;;;;;493643;241;28441;-74
2024/03/30 00:57:41;;;;;;;2.93;1.80;;;9.40;99.90;;;;;;493695;241;28351;-73
2024/03/30 00:59:38;;;;;;;1.53;1.40;;;9.30;99.90;;;;;;493034;241;28585;-73
2024/03/30 01:01:38;;;;;;;1.77;1.67;;;9.40;99.90;;;;;;493884;241;28486;-73
2024/03/30 01:03:39;;;;;;;2.87;1.93;;;9.40;99.90;;;;;;494009;241;28109;-73
2024/03/30 01:05:41;;;;;;;1.50;1.40;;;9.30;99.90;;;;;;493996;241;27954;-73
2024/03/30 01:07:42;;;;;;;1.67;1.57;;;9.30;99.90;;;;;;493992;241;27912;-73
2024/03/30 01:09:43;;;;;;;1.90;1.80;;;9.30;99.90;;;;;;493813;241;28068;-74
2024/03/30 01:11:44;;;;;;;1.90;1.63;;;9.30;99.90;;;;;;494030;241;27953;-75
2024/03/30 01:13:46;;;;;;;2.03;1.30;;;9.30;99.90;;;;;;494000;241;28014;-73
2024/03/30 01:15:47;;;;;;;2.10;1.60;;;9.30;99.90;;;;;;494036;241;28009;-73
2024/03/30 01:17:48;;;;;;;1.70;1.60;;;9.30;99.90;;;;;;493971;237;27962;-73
2024/03/30 01:19:49;;;;;;;1.33;1.23;;;9.30;99.90;;;;;;493964;241;28059;-73
2024/03/30 01:21:51;;;;;;;2.17;1.40;;;9.30;99.90;;;;;;494049;241;27973;-73
2024/03/30 01:23:52;;;;;;;1.73;1.63;;;9.30;99.90;;;;;;494001;241;27953;-73
2024/03/30 01:25:53;;;;;;;2.00;1.37;;;9.30;99.90;;;;;;493955;241;28010;-73
2024/03/30 01:27:54;;;;;;;1.50;1.40;;;9.30;99.90;;;;;;494011;241;27879;-73
2024/03/30 01:29:56;;;;;;;2.30;1.40;;;9.20;99.90;;;;;;494015;241;27823;-72
2024/03/30 01:31:57;;;;;;;3.47;1.87;;;9.20;99.90;;;;;;494020;241;28469;-73
2024/03/30 01:33:58;;;;;;;2.03;1.80;;;9.10;99.90;;;;;;493986;241;28656;-73
2024/03/30 01:35:59;;;;;;;4.60;1.70;;;9.10;99.90;;;;;;493788;241;28440;-73
2024/03/30 01:38:01;;;;;;;1.73;1.63;;;9.00;99.90;;;;;;493978;237;28446;-76
2024/03/30 01:40:02;;;;;;;2.90;2.40;;;9.00;99.90;;;;;;494034;241;28389;-73
2024/03/30 01:42:03;;;;;;;1.87;1.73;;;9.00;99.90;;;;;;494043;241;28266;-74
2024/03/30 01:44:04;;;;;;;2.23;2.00;;;8.90;99.90;;;;;;493979;241;27904;-73
2024/03/30 01:46:06;;;;;;;2.20;2.00;;;8.80;99.90;;;;;;493984;241;28148;-73
2024/03/30 01:48:07;;;;;;;1.80;1.40;;;8.80;99.90;;;;;;494077;241;28085;-74
2024/03/30 01:50:08;;;;;;;1.60;1.50;;;8.70;99.90;;;;;;494067;237;27946;-73
2024/03/30 01:52:09;;;;;;;2.23;1.73;;;8.70;99.90;;;;;;494031;241;27969;-73
2024/03/30 01:54:11;;;;;;;1.70;1.60;;;8.70;99.90;;;;;;494001;237;28043;-73
2024/03/30 01:56:12;;;;;;;1.70;1.50;;;8.70;99.90;;;;;;494028;241;27943;-73
2024/03/30 01:58:13;;;;;;;2.03;1.70;;;8.70;99.90;;;;;;494072;241;28006;-74
2024/03/30 02:00:14;;;;;;;3.40;1.87;;;8.70;99.90;;;;;;494015;241;27828;-73
2024/03/30 02:02:16;;;;;;;2.10;1.90;;;8.60;99.90;;;;;;494010;241;27936;-73
2024/03/30 02:04:17;;;;;;;2.07;1.97;;;8.60;99.90;;;;;;493975;241;28050;-73
2024/03/30 02:06:18;;;;;;;2.00;1.50;;;8.60;99.90;;;;;;494034;241;28090;-73
2024/03/30 02:08:19;;;;;;;1.50;1.50;;;8.50;99.90;;;;;;493991;241;28102;-73
2024/03/30 02:10:21;;;;;;;3.83;1.80;;;8.50;99.90;;;;;;494002;241;27589;-73
2024/03/30 02:12:22;;;;;;;2.10;1.90;;;8.60;99.90;;;;;;493990;241;27973;-73
2024/03/30 02:14:23;;;;;;;2.53;1.80;;;8.60;99.90;;;;;;494015;241;28503;-75
2024/03/30 02:16:28;;;;;;;1.80;1.70;;;8.70;99.90;;;;;;494019;237;28021;-73
2024/03/30 02:18:26;;;;;;;2.10;1.90;;;8.70;99.90;;;;;;493699;237;28446;-73
2024/03/30 02:20:27;;;;;;;1.67;1.57;;;8.60;99.90;;;;;;494000;241;28269;-73
2024/03/30 02:22:28;;;;;;;1.70;1.60;;;8.60;99.90;;;;;;494025;241;27977;-73
2024/03/30 02:24:29;;;;;;;1.70;1.60;;;8.50;99.90;;;;;;494029;241;27956;-73
2024/03/30 02:26:31;;;;;;;2.30;1.50;;;8.50;99.90;;;;;;494018;241;28018;-73
2024/03/30 02:28:32;;;;;;;1.93;1.70;;;8.50;99.90;;;;;;494038;241;27613;-73
2024/03/30 02:30:33;;;;;;;1.50;1.40;;;8.50;99.90;;;;;;493986;241;27781;-73
2024/03/30 02:32:34;;;;;;;1.80;1.70;;;8.50;99.90;;;;;;494030;241;27841;-73
2024/03/30 02:34:36;;;;;;;2.33;1.73;;;8.50;99.90;;;;;;494044;241;27596;-74
2024/03/30 02:36:37;;;;;;;2.17;2.07;;;8.40;99.90;;;;;;494035;241;28039;-73
2024/03/30 02:38:38;;;;;;;2.07;1.80;;;8.40;99.90;;;;;;494010;241;28061;-73
2024/03/30 02:40:39;;;;;;;1.60;1.50;;;8.40;99.90;;;;;;493998;241;28186;-76
2024/03/30 02:42:41;;;;;;;6.77;2.00;;;8.30;99.90;;;;;;494048;241;27940;-74
2024/03/30 02:44:42;;;;;;;1.50;1.40;;;8.30;99.90;;;;;;493973;241;28018;-73
2024/03/30 02:46:43;;;;;;;2.67;1.80;;;8.30;99.90;;;;;;494013;241;28001;-73
2024/03/30 02:48:44;;;;;;;2.40;1.60;;;8.20;99.90;;;;;;493708;241;28008;-74
2024/03/30 02:50:46;;;;;;;1.80;1.70;;;8.20;99.90;;;;;;493566;241;27979;-75
2024/03/30 02:52:47;;;;;;;2.30;2.10;;;8.30;99.90;;;;;;493803;241;28378;-73
2024/03/30 02:54:48;;;;;;;4.40;2.17;;;8.20;99.90;;;;;;493965;241;28562;-73
2024/03/30 02:56:49;;;;;;;2.00;1.90;;;8.20;99.90;;;;;;493942;241;28476;-73
2024/03/30 02:58:51;;;;;;;1.73;1.63;;;8.20;99.90;;;;;;493898;237;28364;-73
2024/03/30 03:00:52;;;;;;;2.20;1.50;;;8.20;99.90;;;;;;493996;241;28609;-74
2024/03/30 03:02:53;;;;;;;2.87;1.60;;;8.30;99.90;;;;;;493982;241;27944;-73
2024/03/30 03:04:55;;;;;;;2.00;1.50;;;8.20;99.90;;;;;;493962;241;27851;-74
2024/03/30 03:06:56;;;;;;;3.67;1.70;;;8.20;99.90;;;;;;493899;241;27698;-73
2024/03/30 03:08:57;;;;;;;3.17;1.83;;;8.20;99.90;;;;;;493970;241;28144;-73
2024/03/30 03:10:58;;;;;;;2.10;1.60;;;8.20;99.90;;;;;;494078;241;27797;-73
2024/03/30 03:12:59;;;;;;;4.53;1.97;;;8.10;99.90;;;;;;493920;241;28478;-73
2024/03/30 03:15:04;;;;;;;1.40;1.30;;;8.10;99.90;;;;;;494056;241;28024;-73
2024/03/30 03:17:02;;;;;;;1.90;1.80;;;8.10;99.90;;;;;;493732;241;27912;-73
2024/03/30 03:19:03;;;;;;;2.13;1.93;;;8.10;99.90;;;;;;494047;237;27937;-73
2024/03/30 03:21:04;;;;;;;4.77;1.70;;;8.10;99.90;;;;;;494013;241;28267;-73
2024/03/30 03:23:06;;;;;;;2.50;1.50;;;8.10;99.90;;;;;;494015;241;28029;-73
2024/03/30 03:25:07;;;;;;;3.73;1.87;;;8.10;99.90;;;;;;493982;241;27995;-73
2024/03/30 03:27:08;;;;;;;2.93;1.70;;;8.10;99.90;;;;;;493991;241;27981;-73
2024/03/30 03:29:09;;;;;;;1.70;1.60;;;8.10;99.90;;;;;;494016;241;27927;-73
2024/03/30 03:31:11;;;;;;;5.87;1.87;;;8.00;99.90;;;;;;493983;241;28479;-73
2024/03/30 03:33:13;;;;;;;2.00;1.83;;;8.00;99.90;;;;;;493959;241;28381;-73
2024/03/30 03:35:13;;;;;;;2.77;1.73;;;7.90;99.90;;;;;;493866;241;28555;-73
2024/03/30 03:37:14;;;;;;;1.90;1.80;;;7.90;99.90;;;;;;494049;241;28471;-76
2024/03/30 03:39:17;;;;;;;2.80;1.70;;;7.90;99.90;;;;;;494027;241;28542;-73
2024/03/30 03:41:17;;;;;;;2.13;1.60;;;7.90;99.90;;;;;;493850;241;28458;-73
2024/03/30 03:43:19;;;;;;;3.90;1.60;;;7.80;99.90;;;;;;493965;241;27774;-73
2024/03/30 03:45:19;;;;;;;4.00;2.00;;;7.60;99.90;;;;;;493991;241;27981;-73
2024/03/30 03:47:21;;;;;;;2.93;1.60;;;7.70;99.90;;;;;;493970;241;27983;-75
2024/03/30 03:49:22;;;;;;;4.63;1.93;;;7.70;99.90;;;;;;494000;241;27665;-73
2024/03/30 03:51:23;;;;;;;2.40;1.70;;;7.70;99.90;;;;;;493968;241;27989;-72
2024/03/30 03:53:24;;;;;;;1.60;1.50;;;7.70;99.90;;;;;;493991;241;27574;-73
2024/03/30 03:55:26;;;;;;;3.00;1.60;;;7.60;99.90;;;;;;494008;241;27719;-73
2024/03/30 03:57:27;;;;;;;3.30;1.63;;;7.60;99.90;;;;;;493829;241;28011;-73
2024/03/30 03:59:28;;;;;;;1.80;1.67;;;7.60;99.90;;;;;;493975;241;27686;-73
2024/03/30 04:01:29;;;;;;;2.10;1.60;;;7.50;99.90;;;;;;493967;241;27534;-73
2024/03/30 04:03:31;;;;;;;3.20;1.70;;;7.50;99.90;;;;;;493992;241;27953;-73
2024/03/30 04:05:32;;;;;;;1.67;1.57;;;7.50;99.90;;;;;;494026;237;27902;-73
2024/03/30 04:07:33;;;;;;;2.83;1.70;;;7.50;99.90;;;;;;493982;237;28077;-73
2024/03/30 04:09:34;;;;;;;3.27;1.60;;;7.50;99.90;;;;;;493956;241;27936;-73
2024/03/30 04:11:36;;;;;;;5.43;1.87;;;7.40;99.90;;;;;;493970;241;28309;-73
2024/03/30 04:13:37;;;;;;;2.40;1.50;;;7.30;99.90;;;;;;493839;241;28455;-73
2024/03/30 04:15:40;;;;;;;1.40;1.30;;;7.40;99.90;;;;;;494025;241;28173;-73
2024/03/30 04:17:39;;;;;;;1.40;1.40;;;7.30;99.90;;;;;;493890;241;28406;-73
2024/03/30 04:19:41;;;;;;;1.70;1.50;;;7.30;99.90;;;;;;493948;241;28466;-73
2024/03/30 04:21:42;;;;;;;1.50;1.40;;;7.40;99.90;;;;;;493955;241;28419;-72
2024/03/30 04:23:43;;;;;;;1.50;1.40;;;7.30;99.90;;;;;;493995;241;28053;-74
2024/03/30 04:25:44;;;;;;;1.93;1.33;;;7.30;99.90;;;;;;493971;241;28010;-73
2024/03/30 04:27:46;;;;;;;2.10;1.60;;;7.30;99.90;;;;;;493926;241;27992;-73
2024/03/30 04:29:47;;;;;;;1.53;1.43;;;7.30;99.90;;;;;;493960;241;27990;-72
2024/03/30 04:31:48;;;;;;;2.20;1.47;;;7.30;99.90;;;;;;494015;241;27826;-73
2024/03/30 04:33:49;;;;;;;1.67;1.57;;;7.40;99.90;;;;;;494002;241;27941;-73
2024/03/30 04:35:51;;;;;;;5.63;1.80;;;7.40;99.90;;;;;;494005;241;27909;-73
2024/03/30 04:37:52;;;;;;;2.50;1.70;;;7.40;99.90;;;;;;493959;241;28042;-73
2024/03/30 04:39:53;;;;;;;2.83;1.60;;;7.40;99.90;;;;;;494001;241;28332;-76
2024/03/30 04:41:54;;;;;;;1.50;1.27;;;7.40;99.90;;;;;;493990;241;27959;-74
2024/03/30 04:43:56;;;;;;;2.10;1.90;;;7.30;99.90;;;;;;494009;241;28054;-73
2024/03/30 04:45:57;;;;;;;1.73;1.60;;;7.30;99.90;;;;;;494016;241;27962;-73
2024/03/30 04:47:58;;;;;;;2.90;1.90;;;7.30;99.90;;;;;;493943;241;27813;-73
2024/03/30 04:49:59;;;;;;;1.60;1.50;;;7.40;99.90;;;;;;494038;237;27915;-75
2024/03/30 04:52:01;;;;;;;1.50;1.40;;;7.40;99.90;;;;;;494006;241;28476;-73
2024/03/30 04:54:02;;;;;;;1.83;1.73;;;7.40;99.90;;;;;;493979;241;28232;-73
2024/03/30 04:56:03;;;;;;;4.23;1.40;;;7.40;99.90;;;;;;493817;241;28161;-73
2024/03/30 04:58:04;;;;;;;1.80;1.60;;;7.50;99.90;;;;;;494012;241;28160;-73
2024/03/30 05:00:06;;;;;;;2.60;1.30;;;7.40;99.90;;;;;;494024;237;28548;-75
2024/03/30 05:02:07;;;;;;;4.50;1.97;;;7.50;99.90;;;;;;493972;241;27962;-73
2024/03/30 05:04:08;;;;;;;3.27;1.50;;;7.50;99.90;;;;;;493994;241;28097;-73
2024/03/30 05:06:09;;;;;;;5.00;1.57;;;7.50;99.90;;;;;;493998;241;28008;-73
2024/03/30 05:08:11;;;;;;;2.53;1.37;;;7.50;99.90;;;;;;494008;241;28018;-73
2024/03/30 05:10:12;;;;;;;10.27;3.00;;;7.60;99.90;;;;;;493975;241;27968;-75
2024/03/30 05:12:13;;;;;;;2.20;1.57;;;7.90;99.90;;;;;;493961;241;27935;-73
2024/03/30 05:14:14;;;;;;;9.10;2.30;;;7.90;99.90;;;;;;493964;241;27560;-73
2024/03/30 05:16:16;;;;;;;6.93;2.20;;;7.80;99.90;;;;;;494046;241;28393;-74
2024/03/30 05:18:17;;;;;;;5.23;1.87;;;7.80;99.90;;;;;;494045;241;27993;-73
2024/03/30 05:22:38;;;;;;;5.83;1.80;;;8.00;99.90;;;;;;494010;241;28153;-73
2024/03/30 05:24:39;;;;;;;6.20;2.43;;;7.80;99.90;;;;;;493982;241;28106;-73
2024/03/30 05:26:40;;;;;;;2.00;1.90;;;7.70;99.90;;;;;;494026;241;28467;-73
2024/03/30 05:28:41;;;;;;;3.83;1.90;;;7.70;99.90;;;;;;493977;241;28451;-73
2024/03/30 05:30:43;;;;;;;5.53;2.20;;;7.70;99.90;;;;;;493948;241;28292;-73
2024/03/30 05:32:44;;;;;;;5.63;2.00;;;7.80;99.90;;;;;;494030;241;28541;-75
2024/03/30 05:34:45;;;;;;;8.80;1.87;;;8.00;99.90;;;;;;493986;241;28410;-73
2024/03/30 05:36:46;;;;;;;8.90;2.63;;;8.30;99.90;;;;;;493881;241;28446;-74
2024/03/30 05:38:48;;;;;;;4.30;2.10;;;8.60;99.90;;;;;;493981;241;28059;-73
2024/03/30 05:40:49;;;;;;;20.40;3.30;;;8.70;99.90;;;;;;494006;241;27963;-73
2024/03/30 05:42:50;;;;;;;6.30;2.10;;;9.00;99.90;;;;;;494018;241;27998;-75
2024/03/30 05:44:51;;;;;;;4.83;1.70;;;9.10;99.90;;;;;;494014;241;27845;-73
2024/03/30 05:46:53;;;;;;;10.83;2.33;;;9.20;99.90;;;;;;493985;241;27520;-73
2024/03/30 05:48:54;;;;;;;7.00;2.13;;;9.40;99.90;;;;;;493983;241;27955;-73
2024/03/30 05:50:55;;;;;;;6.70;2.10;;;9.60;99.90;;;;;;494004;241;28078;-73
2024/03/30 05:52:56;;;;;;;7.27;2.20;;;9.50;99.90;;;;;;494024;241;28004;-73
2024/03/30 05:54:58;;;;;;;6.03;2.20;;;9.40;99.90;;;;;;493933;241;27938;-73
2024/03/30 05:56:59;;;;;;;7.00;2.20;;;9.70;99.90;;;;;;493950;241;28085;-73
2024/03/30 05:59:00;;;;;;;7.97;2.10;;;9.70;99.90;;;;;;493993;241;28013;-75
2024/03/30 06:01:01;;;;;;;6.77;1.97;;;9.70;99.90;;;;;;494022;241;27984;-73
2024/03/30 06:03:03;;;;;;;9.27;2.47;;;9.90;99.90;;;;;;493956;241;27969;-73
2024/03/30 06:05:04;;;;;;;13.27;2.27;;;10.00;99.90;;;;;;492724;241;27850;-73
2024/03/30 06:07:08;;;;;;;9.10;1.93;;;10.10;99.90;;;;;;491963;240;27925;-73
2024/03/30 06:09:06;;;;;;;8.73;2.57;;;10.20;99.90;;;;;;493757;241;27615;-74
2024/03/30 06:11:08;;;;;;;4.40;2.23;;;10.20;99.90;;;;;;493973;237;27924;-73
2024/03/30 06:13:09;;;;;;;9.47;2.47;;;10.20;99.90;;;;;;493976;241;27870;-74
2024/03/30 06:15:10;;;;;;;4.97;1.90;;;10.20;99.90;;;;;;493637;241;27932;-73
2024/03/30 06:17:11;;;;;;;2.90;2.13;;;10.30;99.90;;;;;;493948;241;28024;-73
2024/03/30 06:19:13;;;;;;;4.87;2.27;;;10.30;99.90;;;;;;493877;241;28439;-74
2024/03/30 06:21:15;;;;;;;8.00;2.10;;;10.40;99.90;;;;;;494028;241;28477;-73
2024/03/30 06:23:15;;;;;;;8.73;2.50;;;10.50;99.90;;;;;;493830;241;28444;-73
2024/03/30 06:25:16;;;;;;;8.20;2.47;;;10.60;99.90;;;;;;493995;241;27945;-73
2024/03/30 06:27:18;;;;;;;13.07;2.73;;;10.60;99.90;;;;;;494022;241;28016;-73
2024/03/30 06:29:20;;;;;;;14.57;3.03;;;10.60;99.90;;;;;;493771;241;28021;-74
2024/03/30 06:31:21;;;;;;;8.47;2.53;;;10.70;99.90;;;;;;493927;241;28222;-73
2024/03/30 06:33:23;;;;;;;6.70;2.43;;;10.80;99.90;;;;;;493985;237;27964;-75
2024/03/30 06:35:25;;;;;;;9.43;1.70;;;10.80;99.90;;;;;;493986;237;28598;-72
2024/03/30 06:37:25;;;;;;;6.03;1.97;;;10.90;99.90;;;;;;493745;241;28432;-74
2024/03/30 06:43:40;;;;;;;10.70;2.40;;;10.90;99.90;;;;;;493937;237;28385;-73
2024/03/30 06:43:47;;;;;;;6.70;2.07;;;11.10;99.90;;;;;;493977;241;28767;-73
2024/03/30 06:45:48;;;;;;;9.13;1.80;;;11.10;99.90;;;;;;493939;241;28509;-72
2024/03/30 06:47:50;;;;;;;4.90;1.77;;;11.10;99.90;;;;;;493923;241;28085;-73
2024/03/30 06:49:51;;;;;;;3.73;1.50;;;11.10;99.90;;;;;;493573;236;28046;-75
2024/03/30 06:51:52;;;;;;;7.63;2.20;;;11.00;99.90;;;;;;490285;241;28078;-73
2024/03/30 06:53:53;;;;;;;6.20;1.57;;;11.10;99.90;;;;;;492440;241;28026;-74
2024/03/30 06:55:55;;;;;;;6.00;2.07;;;11.30;99.90;;;;;;493707;241;28069;-73
2024/03/30 06:57:56;;;;;;;4.77;1.60;;;11.40;99.90;;;;;;493765;241;28355;-73
2024/03/30 06:59:57;;;;;;;7.10;1.77;;;11.50;99.90;;;;;;493800;241;28365;-75
2024/03/30 07:01:58;;;;;;;6.07;1.90;;;11.50;99.90;;;;;;493664;241;28242;-73
2024/03/30 07:04:00;;;;;;;6.37;2.17;;;11.50;99.90;;;;;;493569;241;28104;-73
2024/03/30 07:06:01;;;;;;;3.40;1.53;;;11.60;99.90;;;;;;493815;241;28379;-75
2024/03/30 07:08:02;;;;;;;7.30;1.67;;;11.60;99.90;;;;;;493902;241;28325;-72
2024/03/30 07:10:03;;;;;;;6.23;1.87;;;11.70;99.90;;;;;;493874;241;28761;-75
2024/03/30 07:12:05;;;;;;;6.13;2.00;;;11.70;99.90;;;;;;493750;241;28839;-73
2024/03/30 07:14:06;;;;;;;2.67;1.50;;;11.70;99.90;;;;;;493777;241;28861;-73
2024/03/30 07:16:07;;;;;;;7.67;1.50;;;11.60;99.90;;;;;;493780;237;28347;-74
2024/03/30 07:18:08;;;;;;;5.03;1.60;;;11.60;99.90;;;;;;493911;241;28285;-73
2024/03/30 07:20:10;;;;;;;4.43;1.60;;;11.70;99.90;;;;;;493857;241;28316;-74
2024/03/30 07:22:11;;;;;;;5.00;1.70;;;11.80;99.90;;;;;;492185;241;28214;-73
2024/03/30 07:24:12;;;;;;;1.90;1.40;;;11.80;99.90;;;;;;494964;236;28172;-74
2024/03/30 07:26:13;;;;;;;11.93;2.23;;;11.80;99.90;;;;;;494000;241;28425;-74
2024/03/30 07:28:15;;;;;;;6.87;1.60;;;11.80;99.90;;;;;;493947;241;28153;-74
2024/03/30 07:30:16;;;;;;;3.53;1.80;;;11.90;99.90;;;;;;493934;241;28376;-75
2024/03/30 07:32:17;;;;;;;11.50;1.90;;;11.80;99.90;;;;;;493843;237;28166;-74
2024/03/30 07:34:18;;;;;;;1.83;1.50;;;11.90;99.90;;;;;;493316;241;28912;-75
2024/03/30 07:36:20;;;;;;;4.33;1.40;;;11.90;99.90;;;;;;493494;241;28678;-77
2024/03/30 07:38:24;;;;;;;9.77;1.90;;;11.90;99.90;;;;;;493800;241;28673;-74
2024/03/30 07:40:22;;;;;;;6.10;1.80;;;11.90;99.90;;;;;;494825;236;28336;-74
2024/03/30 07:42:23;;;;;;;4.93;1.50;;;12.00;99.90;;;;;;503007;236;28256;-72
2024/03/30 07:44:27;;;;;;;9.63;2.23;;;12.00;99.90;;;;;;503087;236;28505;-74
2024/03/30 07:46:26;;;;;;;9.90;1.97;;;12.00;99.90;;;;;;502763;236;28333;-73
2024/03/30 07:48:27;;;;;;;8.30;1.80;;;12.20;99.90;;;;;;502929;236;28337;-73
2024/03/30 07:50:28;;;;;;;8.63;1.73;;;12.30;99.90;;;;;;502990;236;28473;-73
2024/03/30 07:52:30;;;;;;;4.00;1.60;;;12.40;99.90;;;;;;502983;236;28847;-74
2024/03/30 07:54:31;;;;;;;15.57;10.43;;;12.40;99.90;;;;;;492205;241;28239;-73
2024/03/30 07:56:32;;;;;;;3.93;2.00;;;12.40;99.90;;;;;;492212;241;28885;-74
2024/03/30 07:58:34;;;;;;;5.60;2.97;;;12.50;99.90;;;;;;492060;241;28774;-73
2024/03/30 08:00:35;;;;;;;12.13;3.80;;;12.40;99.90;;;;;;492186;241;28592;-73
2024/03/30 08:02:37;;;;;;;8.93;4.33;;;;;;;;;;492277;241;28607;-73
2024/03/30 08:04:38;;;;;;;15.50;8.30;;;12.30;99.90;;;;;;492181;241;26964;-73
2024/03/30 08:06:40;;;;;;;8.83;6.83;;;12.40;99.90;;;;;;492221;241;29351;-73
2024/03/30 08:08:41;;;;;;;11.77;6.90;;;12.50;99.90;;;;;;492734;241;29338;-73
2024/03/30 08:10:43;;;;;;;25.43;13.90;;;;;;;;;;493790;241;29532;-74
2024/03/30 08:12:45;;;;;;;20.20;10.50;;;12.70;99.90;;;;;;492304;236;27626;-74
2024/03/30 08:14:46;;;;;;;17.97;10.80;;;12.80;99.90;;;;;;489271;242;28281;-73
2024/03/30 08:16:47;;;;;;;25.27;13.03;;;13.00;99.90;;;;;;489350;242;28622;-74
2024/03/30 08:18:48;;;;;;;16.60;9.77;;;13.10;99.90;;;;;;489398;242;28711;-73
2024/03/30 08:20:50;;;;;;;18.37;6.73;;;13.20;99.90;;;;;;489411;242;28399;-72
2024/03/30 08:22:51;;;;;;;28.80;13.77;;;13.30;99.90;;;;;;489972;240;28326;-73
2024/03/30 08:24:52;;;;;;;12.83;4.43;;;13.30;99.90;;;;;;493915;241;28695;-74
2024/03/30 08:26:53;;;;;;;8.07;2.47;;;13.50;99.90;;;;;;493795;241;28174;-75
2024/03/30 08:28:55;;;;;;;4.77;2.73;;;13.40;99.90;;;;;;489237;243;28953;-73
2024/03/30 08:30:56;;;;;;;13.77;3.80;;;13.40;99.90;;;;;;489422;242;28542;-72
2024/03/30 08:33:01;;;;;;;16.20;2.73;;;13.60;99.90;;;;;;489344;242;28122;-72
2024/03/30 08:35:02;;;;;;;16.40;7.40;;;13.60;99.90;;;;;;489407;242;28252;-73
2024/03/30 08:37:03;;;;;;;8.17;3.67;;;13.70;99.90;;;;;;489205;242;28366;-73
2024/03/30 08:39:04;;;;;;;13.47;5.53;;;13.90;99.90;;;;;;489367;242;28304;-72
2024/03/30 08:41:05;;;;;;;8.03;3.20;;;14.00;99.90;;;;;;489286;243;28349;-74
2024/03/30 08:43:07;;;;;;;5.07;2.53;;;13.60;99.90;;;;;;489325;242;28453;-75
2024/03/30 08:45:08;;;;;;;4.33;2.93;;;13.40;99.90;;;;;;489409;242;28420;-73
2024/03/30 08:47:09;;;;;;;5.37;3.07;;;13.40;99.90;;;;;;489436;242;28926;-73
2024/03/30 08:49:12;;;;;;;10.53;2.90;;;13.50;99.90;;;;;;489318;242;28731;-73
2024/03/30 08:51:12;;;;;;;12.20;4.23;;;13.60;99.90;;;;;;489197;243;28974;-73
2024/03/30 08:53:16;;;;;;;18.30;3.93;;;13.80;99.90;;;;;;491017;239;29465;-72
2024/03/30 08:55:14;;;;;;;16.20;4.07;;;14.10;99.90;;;;;;493436;236;29196;-75
2024/03/30 08:57:16;;;;;;;10.43;3.77;;;14.20;99.90;;;;;;493246;236;28570;-73
2024/03/30 08:59:17;;;;;;;10.90;3.47;;;14.50;99.90;;;;;;490178;241;28892;-75
2024/03/30 09:01:18;;;;;;;5.80;2.93;;;14.60;99.90;;;;;;488575;242;28546;-75
2024/03/30 09:03:19;;;;;;;10.03;3.30;;;14.70;99.90;;;;;;489203;242;28759;-73
2024/03/30 09:05:20;;;;;;;8.23;2.60;;;14.80;99.90;;;;;;489384;243;28946;-73
2024/03/30 09:07:22;;;;;;;5.10;2.13;;;15.00;99.90;;;;;;489199;243;28820;-73
2024/03/30 09:09:23;;;;;;;3.80;1.97;;;14.70;99.90;;;;;;489457;242;28798;-74
2024/03/30 09:11:24;;;;;;;5.57;2.40;;;14.70;99.90;;;;;;489352;242;29247;-73
2024/03/30 09:13:25;;;;;;;7.10;2.00;;;14.90;99.90;;;;;;489111;243;29351;-73
2024/03/30 09:15:28;;;;;;;6.70;2.80;;;15.10;99.90;;;;;;489206;242;30106;-73
2024/03/30 09:17:28;;;;;;;9.40;2.70;;;15.50;99.90;;;;;;489175;243;29258;-73
2024/03/30 09:19:30;;;;;;;13.60;3.10;;;15.80;99.90;;;;;;489345;242;28868;-73
2024/03/30 09:21:30;;;;;;;17.30;7.93;;;16.00;99.90;;;;;;489459;242;28704;-73
2024/03/30 09:23:32;;;;;;;9.10;3.20;;;16.10;99.20;;;;;;491382;239;28845;-73
2024/03/30 09:25:33;;;;;;;13.87;2.63;;;16.20;98.30;;;;;;493909;241;28852;-73
2024/03/30 09:27:34;;;;;;;9.53;2.80;;;16.30;98.50;;;;;;493997;241;28908;-72
2024/03/30 09:29:35;;;;;;;7.07;2.53;;;16.30;99.90;;;;;;493811;241;28951;-73
2024/03/30 09:31:37;;;;;;;9.43;2.23;;;16.30;99.90;;;;;;493893;241;28878;-72
2024/03/30 09:33:38;;;;;;;7.40;2.60;;;16.40;99.90;;;;;;493921;241;28935;-72
2024/03/30 09:35:39;;;;;;;12.73;2.70;;;16.40;99.90;;;;;;493966;241;29361;-76
2024/03/30 09:37:41;;;;;;;14.03;2.73;;;16.40;99.90;;;;;;493825;241;29533;-73
2024/03/30 09:39:43;;;;;;;12.40;3.27;;;16.40;99.90;;;;;;493989;237;28887;-72
2024/03/30 09:41:43;;;;;;;6.20;2.50;;;16.20;99.00;;;;;;493830;241;28983;-72
2024/03/30 09:43:44;;;;;;;11.50;4.10;;;16.20;99.20;;;;;;493913;241;28900;-72
2024/03/30 09:45:46;;;;;;;10.80;4.73;;;16.00;98.20;;;;;;493982;241;28853;-74
2024/03/30 09:47:47;;;;;;;5.50;3.10;;;16.00;98.60;;;;;;493953;241;28817;-72
2024/03/30 09:49:48;;;;;;;14.17;2.90;;;15.90;97.90;;;;;;493753;237;28914;-72
2024/03/30 09:51:49;;;;;;;8.47;2.80;;;15.70;98.60;;;;;;493865;241;28815;-72
2024/03/30 09:53:51;;;;;;;14.80;2.80;;;15.50;99.70;;;;;;495003;239;28822;-73
2024/03/30 09:55:52;;;;;;;7.37;2.40;;;15.20;99.90;;;;;;495789;239;29322;-73
2024/03/30 09:57:53;;;;;;;5.40;2.00;;;15.00;99.90;;;;;;495753;239;29227;-73
2024/03/30 09:59:54;;;;;;;11.13;2.10;;;14.70;99.90;;;;;;495599;239;29401;-74
2024/03/30 10:01:56;;;;;;;6.03;1.93;;;14.40;99.90;;;;;;495800;239;28835;-74
2024/03/30 10:03:57;;;;;;;17.17;2.80;;;14.30;99.90;;;;;;495748;239;28777;-73
2024/03/30 10:05:58;;;;;;;11.23;2.83;;;14.00;99.90;;;;;;495813;239;28813;-74
2024/03/30 10:07:59;;;;;;;10.20;2.17;;;13.70;99.90;;;;;;489204;240;28737;-73
2024/03/30 10:10:01;;;;;;;6.73;2.17;;;13.20;99.90;;;;;;485149;244;28863;-72
2024/03/30 10:12:02;;;;;;;10.30;2.37;;;13.10;99.90;;;;;;485161;244;28948;-75
2024/03/30 10:14:06;;;;;;;4.83;1.80;;;13.10;99.90;;;;;;485195;244;28397;-73
2024/03/30 10:16:04;;;;;;;6.70;2.47;;;12.90;99.90;;;;;;484256;245;28953;-75
2024/03/30 10:20:44;;;;;;;3.80;1.60;;;12.80;99.90;;;;;;485135;245;28092;-74
2024/03/30 10:22:45;;;;;;;5.17;2.23;;;12.70;99.90;;;;;;485176;244;28256;-74
2024/03/30 10:27:17;;;;;;;3.17;1.70;;;12.60;99.90;;;;;;485135;245;28701;-75
2024/03/30 10:31:48;;;;;;;7.23;2.13;;;12.70;99.90;;;;;;485296;245;28875;-73
2024/03/30 10:34:07;;;;;;;6.40;2.40;;;12.80;99.90;;;;;;485328;244;28168;-75
2024/03/30 10:36:07;;;;;;;6.33;3.60;;;12.80;99.90;;;;;;485195;245;28222;-75
2024/03/30 10:38:17;;;;;;;5.43;3.47;;;13.00;99.90;;;;;;484614;244;28734;-74
2024/03/30 10:40:18;;;;;;;9.77;5.80;;;13.10;99.90;;;;;;485327;244;28548;-75
2024/03/30 10:42:27;;;;;;;14.00;8.10;;;13.10;99.90;;;;;;485370;244;28762;-75
2024/03/30 10:44:29;;;;;;;19.97;15.43;;;13.20;99.90;;;;;;485298;245;28351;-74
2024/03/30 10:46:39;;;;;;;15.67;12.17;;;13.30;99.90;;;;;;485141;244;28816;-72